createdAt,value
2018-10-12T19:13:35.819Z,1000.00
2018-10-12T19:14:35.576Z,1140.00
2018-10-12T19:15:35.677Z,1228.00
2018-10-12T19:16:35.552Z,1148.00
2018-10-12T19:17:35.505Z,1004.00
2018-10-12T19:18:35.483Z,808.00
2018-10-12T19:19:35.597Z,644.00
2018-10-12T19:20:35.454Z,552.00
2018-10-12T19:21:35.425Z,580.00
2018-10-12T19:22:35.396Z,624.00
2018-10-12T19:23:35.434Z,620.00
2018-10-12T19:24:35.425Z,616.00
2018-10-12T19:25:35.425Z,584.00
2018-10-12T19:26:35.310Z,524.00
2018-10-12T19:27:35.274Z,492.00
2018-10-12T19:28:35.255Z,484.00
2018-10-12T19:29:35.220Z,460.00
2018-10-12T19:30:35.264Z,444.00
2018-10-12T19:31:35.388Z,440.00
2018-10-12T19:32:35.166Z,460.00
2018-10-12T19:33:35.127Z,484.00
2018-10-12T19:34:35.149Z,600.00
2018-10-12T19:35:35.218Z,776.00
2018-10-12T19:36:35.056Z,1012.00
2018-10-12T19:37:35.058Z,1196.00
2018-10-12T19:38:35.044Z,1252.00
2018-10-12T19:39:34.979Z,1188.00
2018-10-12T19:40:35.028Z,1148.00
2018-10-12T19:41:34.989Z,1060.00
2018-10-12T19:42:34.975Z,1076.00
2018-10-12T19:43:34.911Z,1000.00
2018-10-12T19:44:34.920Z,956.00
2018-10-12T19:45:34.918Z,1112.00
2018-10-12T19:46:35.041Z,1180.00
2018-10-12T19:47:34.858Z,1132.00
2018-10-12T19:48:34.803Z,1072.00
2018-10-12T19:49:34.792Z,1104.00
2018-10-12T19:50:34.778Z,1092.00
2018-10-12T19:51:34.863Z,1016.00
2018-10-12T19:52:34.700Z,964.00
2018-10-12T19:53:34.677Z,916.00
2018-10-12T19:54:34.668Z,900.00
2018-10-12T19:55:34.691Z,884.00
2018-10-12T19:56:34.685Z,824.00
2018-10-12T19:57:34.614Z,836.00
2018-10-12T19:58:34.631Z,920.00
2018-10-12T19:59:34.584Z,1048.00
2018-10-12T20:00:34.595Z,1448.00
2018-10-12T20:01:34.630Z,1748.00
2018-10-12T20:02:34.489Z,1844.00
2018-10-12T20:03:34.496Z,1796.00
2018-10-12T20:04:34.469Z,1756.00
2018-10-12T20:05:34.436Z,1872.00
2018-10-12T20:06:34.400Z,1828.00
2018-10-12T20:07:34.562Z,1728.00
2018-10-12T20:08:34.369Z,1824.00
2018-10-12T20:09:34.349Z,2116.00
2018-10-12T20:10:34.366Z,1580.00
2018-10-12T20:11:34.291Z,1268.00
2018-10-12T20:12:34.259Z,952.00
2018-10-12T20:13:34.312Z,656.00
2018-10-12T20:14:34.249Z,504.00
2018-10-12T20:15:34.236Z,436.00
2018-10-12T20:16:34.699Z,372.00
2018-10-12T20:17:34.244Z,372.00
2018-10-12T20:18:34.200Z,356.00
2018-10-12T20:19:34.224Z,348.00
2018-10-12T20:20:34.095Z,400.00
2018-10-12T20:21:34.073Z,452.00
2018-10-12T20:22:34.060Z,460.00
2018-10-12T20:23:34.039Z,428.00
2018-10-12T20:24:34.154Z,432.00
2018-10-12T20:25:33.981Z,452.00
2018-10-12T20:26:33.992Z,448.00
2018-10-12T20:27:33.946Z,476.00
2018-10-12T20:28:33.961Z,504.00
2018-10-12T20:29:33.995Z,504.00
2018-10-12T20:30:33.889Z,456.00
2018-10-12T20:31:33.954Z,400.00
2018-10-12T20:32:33.844Z,364.00
2018-10-12T20:33:33.807Z,340.00
2018-10-12T20:34:33.844Z,348.00
2018-10-12T20:35:33.779Z,352.00
2018-10-12T20:36:33.743Z,384.00
2018-10-12T20:37:33.725Z,448.00
2018-10-12T20:38:33.711Z,504.00
2018-10-12T20:39:33.773Z,524.00
2018-10-12T20:40:33.651Z,544.00
2018-10-12T20:41:33.646Z,556.00
2018-10-12T20:42:33.599Z,576.00
2018-10-12T20:43:33.601Z,604.00
2018-10-12T20:44:33.631Z,620.00
2018-10-12T20:45:33.531Z,612.00
2018-10-12T20:46:33.535Z,576.00
2018-10-12T20:47:33.506Z,516.00
2018-10-12T20:48:33.461Z,432.00
2018-10-12T20:49:33.457Z,348.00
2018-10-12T20:50:33.612Z,296.00
2018-10-12T20:51:33.401Z,228.00
2018-10-12T20:52:33.397Z,204.00
2018-10-12T20:53:33.365Z,212.00
2018-10-12T20:54:33.358Z,236.00
2018-10-12T20:55:33.299Z,224.00
2018-10-12T20:56:33.523Z,200.00
2018-10-12T20:57:33.270Z,244.00
2018-10-12T20:58:33.246Z,276.00
2018-10-12T20:59:33.206Z,224.00
2018-10-12T21:00:33.251Z,204.00
2018-10-12T21:01:33.163Z,172.00
2018-10-12T21:02:33.311Z,184.00
2018-10-12T21:03:33.461Z,216.00
2018-10-12T21:04:33.361Z,292.00
2018-10-12T21:05:33.163Z,396.00
2018-10-12T21:06:33.098Z,396.00
2018-10-12T21:07:33.082Z,336.00
2018-10-12T21:08:33.357Z,284.00
2018-10-12T21:09:32.982Z,268.00
2018-10-12T21:10:32.972Z,236.00
2018-10-12T21:11:33.014Z,200.00
2018-10-12T21:12:32.922Z,180.00
2018-10-12T21:13:33.046Z,180.00
2018-10-12T21:14:32.892Z,192.00
2018-10-12T21:15:32.837Z,204.00
2018-10-12T21:16:32.830Z,176.00
2018-10-12T21:17:32.986Z,144.00
2018-10-12T21:18:33.219Z,164.00
2018-10-12T21:19:32.774Z,168.00
2018-10-12T21:20:32.773Z,140.00
2018-10-12T21:21:32.725Z,128.00
2018-10-12T21:22:32.695Z,120.00
2018-10-12T21:23:32.825Z,128.00
2018-10-12T21:24:32.629Z,148.00
2018-10-12T21:25:32.616Z,156.00
2018-10-12T21:26:32.590Z,152.00
2018-10-12T21:27:32.567Z,144.00
2018-10-12T21:28:32.530Z,164.00
2018-10-12T21:29:32.676Z,148.00
2018-10-12T21:30:32.501Z,152.00
2018-10-12T21:31:32.484Z,156.00
2018-10-12T21:32:32.463Z,164.00
2018-10-12T21:33:32.594Z,172.00
2018-10-12T21:34:32.434Z,176.00
2018-10-12T21:35:33.445Z,184.00
2018-10-12T21:36:32.860Z,176.00
2018-10-12T21:37:32.803Z,172.00
2018-10-12T21:38:32.347Z,168.00
2018-10-12T21:39:32.294Z,176.00
2018-10-12T21:40:32.270Z,172.00
2018-10-12T21:41:32.375Z,168.00
2018-10-12T21:42:32.195Z,160.00
2018-10-12T21:43:32.181Z,152.00
2018-10-12T21:44:32.172Z,152.00
2018-10-12T21:45:32.286Z,152.00
2018-10-12T21:46:32.570Z,148.00
2018-10-12T21:47:32.245Z,136.00
2018-10-12T21:48:32.215Z,128.00
2018-10-12T21:49:32.085Z,120.00
2018-10-12T21:50:32.158Z,112.00
2018-10-12T21:51:32.020Z,108.00
2018-10-12T21:52:32.227Z,104.00
2018-10-12T21:53:31.975Z,100.00
2018-10-12T21:54:31.943Z,92.00
2018-10-12T21:55:32.176Z,88.00
2018-10-12T21:56:32.222Z,84.00
2018-10-12T21:57:32.238Z,80.00
2018-10-12T21:58:32.394Z,80.00
2018-10-12T21:59:31.939Z,80.00
2018-10-12T22:00:32.840Z,80.00
2018-10-12T22:01:32.184Z,76.00
2018-10-12T22:02:32.519Z,76.00
2018-10-12T22:03:32.307Z,76.00
2018-10-12T22:04:32.053Z,76.00
2018-10-12T22:05:32.292Z,76.00
2018-10-12T22:06:32.198Z,76.00
2018-10-12T22:07:31.988Z,76.00
2018-10-12T22:08:31.748Z,76.00
2018-10-12T22:09:33.370Z,84.00
2018-10-12T22:10:31.740Z,84.00
2018-10-12T22:11:31.551Z,84.00
2018-10-12T22:12:32.368Z,80.00
2018-10-12T22:13:31.594Z,76.00
2018-10-12T22:14:31.759Z,76.00
2018-10-12T22:15:32.151Z,72.00
2018-10-12T22:16:31.570Z,68.00
2018-10-12T22:17:31.384Z,68.00
2018-10-12T22:18:31.711Z,68.00
2018-10-12T22:19:32.045Z,68.00
2018-10-12T22:20:31.741Z,72.00
2018-10-12T22:21:33.572Z,68.00
2018-10-12T22:22:31.843Z,72.00
2018-10-12T22:23:31.956Z,68.00
2018-10-12T22:24:33.359Z,68.00
2018-10-12T22:25:31.624Z,68.00
2018-10-12T22:26:31.336Z,64.00
2018-10-12T22:27:31.223Z,68.00
2018-10-12T22:28:31.226Z,68.00
2018-10-12T22:29:31.402Z,68.00
2018-10-12T22:30:31.294Z,68.00
2018-10-12T22:31:31.103Z,68.00
2018-10-12T22:32:31.071Z,68.00
2018-10-12T22:33:31.080Z,68.00
2018-10-12T22:34:30.965Z,68.00
2018-10-12T22:35:31.890Z,68.00
2018-10-12T22:36:30.918Z,68.00
2018-10-12T22:37:30.901Z,64.00
2018-10-12T22:38:30.875Z,64.00
2018-10-12T22:39:30.882Z,68.00
2018-10-12T22:40:30.960Z,68.00
2018-10-12T22:41:30.789Z,68.00
2018-10-12T22:42:30.837Z,68.00
2018-10-12T22:43:30.891Z,68.00
2018-10-12T22:44:30.787Z,68.00
2018-10-12T22:45:30.892Z,68.00
2018-10-12T22:46:30.677Z,68.00
2018-10-12T22:47:30.678Z,64.00
2018-10-12T22:48:30.632Z,68.00
2018-10-12T22:49:30.602Z,64.00
2018-10-12T22:50:30.724Z,64.00
2018-10-12T22:51:30.552Z,64.00
2018-10-12T22:52:30.539Z,68.00
2018-10-12T22:53:30.515Z,68.00
2018-10-12T22:54:30.540Z,64.00
2018-10-12T22:55:30.456Z,60.00
2018-10-12T22:56:30.626Z,60.00
2018-10-12T22:57:30.408Z,56.00
2018-10-12T22:58:30.386Z,56.00
2018-10-12T22:59:30.369Z,52.00
2018-10-12T23:00:30.325Z,52.00
2018-10-12T23:01:30.304Z,44.00
2018-10-12T23:02:30.425Z,40.00
2018-10-12T23:03:30.290Z,40.00
2018-10-12T23:04:30.231Z,32.00
2018-10-12T23:05:30.231Z,28.00
2018-10-12T23:06:30.182Z,24.00
2018-10-12T23:07:30.316Z,16.00
2018-10-12T23:08:30.138Z,16.00
2018-10-12T23:09:30.223Z,12.00
2018-10-12T23:10:30.094Z,8.00
2018-10-12T23:11:30.074Z,8.00
2018-10-12T23:12:30.230Z,8.00
2018-10-12T23:13:30.170Z,4.00
2018-10-12T23:14:29.990Z,4.00
2018-10-12T23:15:29.973Z,4.00
2018-10-12T23:16:29.992Z,0.00
2018-10-12T23:17:30.142Z,4.00
2018-10-12T23:18:29.932Z,0.00
2018-10-12T23:19:29.856Z,0.00
2018-10-12T23:20:29.838Z,4.00
2018-10-12T23:21:29.825Z,0.00
2018-10-12T23:22:29.941Z,0.00
2018-10-12T23:23:29.780Z,0.00
2018-10-12T23:24:29.745Z,0.00
2018-10-12T23:25:29.754Z,0.00
2018-10-12T23:26:29.718Z,0.00
2018-10-12T23:27:29.843Z,0.00
2018-10-12T23:28:29.651Z,0.00
2018-10-12T23:29:29.622Z,0.00
2018-10-12T23:30:29.642Z,0.00
2018-10-12T23:31:29.595Z,0.00
2018-10-12T23:32:29.561Z,0.00
2018-10-12T23:33:29.757Z,0.00
2018-10-12T23:34:29.483Z,0.00
2018-10-12T23:35:29.616Z,0.00
2018-10-12T23:36:29.602Z,0.00
2018-10-12T23:37:29.449Z,0.00
2018-10-12T23:38:29.520Z,0.00
2018-10-12T23:39:29.523Z,0.00
2018-10-12T23:40:29.361Z,0.00
2018-10-12T23:41:29.334Z,0.00
2018-10-12T23:42:29.328Z,0.00
2018-10-12T23:43:29.275Z,0.00
2018-10-12T23:44:29.257Z,4.00
2018-10-12T23:45:29.348Z,4.00
2018-10-12T23:46:29.212Z,4.00
2018-10-12T23:47:29.244Z,4.00
2018-10-12T23:48:29.166Z,8.00
2018-10-12T23:49:29.147Z,8.00
2018-10-12T23:50:29.224Z,8.00
2018-10-12T23:51:29.363Z,8.00
2018-10-12T23:52:29.085Z,8.00
2018-10-12T23:53:29.045Z,4.00
2018-10-12T23:54:29.021Z,8.00
2018-10-12T23:55:29.089Z,8.00
2018-10-12T23:56:28.970Z,8.00
2018-10-12T23:57:28.945Z,8.00
2018-10-12T23:58:28.931Z,8.00
2018-10-12T23:59:28.896Z,4.00
